createdAt,value
2023-01-30T00:01:00.488Z,-1.36
2023-01-30T00:01:57.622Z,-1.45
2023-01-30T00:02:57.399Z,-1.42
2023-01-30T00:03:57.427Z,-1.42
2023-01-30T00:04:57.561Z,-1.6
2023-01-30T00:05:57.411Z,-1.64
2023-01-30T00:07:00.468Z,-1.6
2023-01-30T00:07:57.439Z,-1.61
2023-01-30T00:08:57.257Z,-1.54
2023-01-30T00:09:57.419Z,-1.51
2023-01-30T00:10:57.432Z,-1.46
2023-01-30T00:12:00.431Z,-1.61
2023-01-30T00:12:57.448Z,-1.56
2023-01-30T00:13:57.424Z,-1.54
2023-01-30T00:14:57.456Z,-1.53
2023-01-30T00:15:58.499Z,-1.5
2023-01-30T00:16:57.423Z,-1.63
2023-01-30T00:17:57.460Z,-1.57
2023-01-30T00:18:57.451Z,-1.5
2023-01-30T00:19:57.435Z,-1.46
2023-01-30T00:20:58.463Z,-1.58
2023-01-30T00:21:57.543Z,-1.51
2023-01-30T00:23:05.402Z,-1.54
2023-01-30T00:23:57.438Z,-1.5
2023-01-30T00:24:57.866Z,-1.6
2023-01-30T00:26:00.347Z,-1.56
2023-01-30T00:26:57.458Z,-1.69
2023-01-30T00:27:57.957Z,-1.66
2023-01-30T00:28:57.535Z,-1.66
2023-01-30T00:30:07.616Z,-1.63
2023-01-30T00:30:57.751Z,-1.66
2023-01-30T00:31:57.562Z,-1.69
2023-01-30T00:32:57.513Z,-1.68
2023-01-30T00:34:02.129Z,-1.68
2023-01-30T00:34:57.450Z,-1.69
2023-01-30T00:35:57.465Z,-1.64
2023-01-30T00:37:12.110Z,-1.64
2023-01-30T00:37:57.502Z,-1.64
2023-01-30T00:38:57.470Z,-1.61
2023-01-30T00:39:57.491Z,-1.63
2023-01-30T00:41:00.493Z,-1.5
2023-01-30T00:41:57.467Z,-1.63
2023-01-30T00:42:57.498Z,-1.56
2023-01-30T00:43:57.462Z,-1.54
2023-01-30T00:45:00.486Z,-1.6
2023-01-30T00:45:57.607Z,-1.53
2023-01-30T00:46:57.503Z,-1.58
2023-01-30T00:47:57.493Z,-1.43
2023-01-30T00:48:57.490Z,-1.46
2023-01-30T00:49:57.477Z,-1.36
2023-01-30T00:50:58.527Z,-1.4
2023-01-30T00:51:57.473Z,-1.46
2023-01-30T00:52:57.515Z,-1.39
2023-01-30T00:53:57.495Z,-1.38
2023-01-30T00:54:57.314Z,-1.36
2023-01-30T00:56:00.314Z,-1.36
2023-01-30T00:56:57.527Z,-1.32
2023-01-30T00:57:57.534Z,-1.32
2023-01-30T00:58:57.561Z,-1.36
2023-01-30T00:59:57.507Z,-1.35
2023-01-30T01:01:00.459Z,-1.29
2023-01-30T01:01:57.618Z,-1.32
2023-01-30T01:02:57.673Z,-1.12
2023-01-30T01:03:57.551Z,-1.14
2023-01-30T01:04:57.510Z,-1.07
2023-01-30T01:05:57.529Z,-1.04
2023-01-30T01:07:00.794Z,-1.03
2023-01-30T01:07:57.534Z,-1.07
2023-01-30T01:08:57.524Z,-1.07
2023-01-30T01:09:57.505Z,-0.85
2023-01-30T01:10:57.506Z,-1.01
2023-01-30T01:11:57.576Z,-0.89
2023-01-30T01:12:57.547Z,-0.66
2023-01-30T01:13:57.525Z,-0.59
2023-01-30T01:14:57.855Z,-0.49
2023-01-30T01:15:57.583Z,-0.45
2023-01-30T01:16:57.518Z,-0.42
2023-01-30T01:18:00.373Z,-0.3
2023-01-30T01:18:57.542Z,-0.23
2023-01-30T01:19:57.630Z,-0.07
2023-01-30T01:20:57.544Z,-0.21
2023-01-30T01:21:57.525Z,-0.05
2023-01-30T01:22:57.577Z,0.01
2023-01-30T01:23:57.557Z,0.01
2023-01-30T01:24:57.563Z,0.09
2023-01-30T01:25:57.587Z,0.15
2023-01-30T01:26:57.546Z,0.15
2023-01-30T01:27:57.568Z,0.26
2023-01-30T01:29:00.610Z,0.34
2023-01-30T01:29:57.548Z,0.36
2023-01-30T01:30:57.595Z,0.33
2023-01-30T01:31:57.830Z,0.37
2023-01-30T01:32:57.629Z,0.37
2023-01-30T01:34:00.338Z,0.51
2023-01-30T01:34:58.617Z,0.49
2023-01-30T01:35:57.561Z,0.58
2023-01-30T01:36:59.197Z,0.64
2023-01-30T01:37:57.600Z,0.58
2023-01-30T01:38:57.572Z,0.61
2023-01-30T01:40:00.403Z,0.71
2023-01-30T01:40:57.564Z,0.67
2023-01-30T01:41:57.584Z,0.81
2023-01-30T01:42:57.598Z,0.81
2023-01-30T01:43:57.574Z,0.74
2023-01-30T01:45:00.688Z,0.85
2023-01-30T01:45:57.879Z,0.86
2023-01-30T01:46:57.644Z,0.81
2023-01-30T01:47:57.614Z,0.91
2023-01-30T01:48:57.568Z,0.77
2023-01-30T01:49:57.565Z,0.86
2023-01-30T01:50:57.605Z,0.78
2023-01-30T01:51:57.623Z,0.96
2023-01-30T01:52:57.610Z,0.88
2023-01-30T01:53:57.637Z,0.86
2023-01-30T01:54:58.595Z,0.92
2023-01-30T01:56:00.413Z,0.99
2023-01-30T01:56:57.622Z,0.85
2023-01-30T01:57:57.604Z,0.92
2023-01-30T01:58:57.593Z,0.91
2023-01-30T01:59:57.607Z,0.85
2023-01-30T02:00:57.648Z,0.99
2023-01-30T02:01:57.711Z,0.88
2023-01-30T02:02:57.622Z,0.92
2023-01-30T02:03:57.605Z,0.96
2023-01-30T02:04:57.579Z,0.96
2023-01-30T02:05:57.624Z,0.95
2023-01-30T02:06:57.607Z,0.96
2023-01-30T02:07:57.625Z,0.95
2023-01-30T02:08:57.724Z,0.96
2023-01-30T02:09:57.662Z,0.89
2023-01-30T02:10:57.589Z,0.99
2023-01-30T02:11:57.641Z,0.89
2023-01-30T02:12:57.626Z,0.99
2023-01-30T02:13:57.613Z,1.04
2023-01-30T02:14:57.602Z,1.03
2023-01-30T02:15:57.612Z,0.99
2023-01-30T02:16:57.638Z,0.96
2023-01-30T02:17:57.889Z,0.95
2023-01-30T02:18:57.617Z,0.99
2023-01-30T02:19:57.678Z,1.12
2023-01-30T02:20:57.662Z,0.96
2023-01-30T02:21:57.637Z,1
2023-01-30T02:23:00.749Z,0.95
2023-01-30T02:23:57.648Z,1.06
2023-01-30T02:24:57.657Z,1.06
2023-01-30T02:26:00.223Z,1.03
2023-01-30T02:26:57.662Z,1.06
2023-01-30T02:27:59.164Z,1.04
2023-01-30T02:28:57.649Z,1.02
2023-01-30T02:29:57.698Z,1.13
2023-01-30T02:30:57.924Z,1.09
2023-01-30T02:31:57.654Z,1.1
2023-01-30T02:32:57.714Z,1.18
2023-01-30T02:33:57.758Z,1.2
2023-01-30T02:34:57.641Z,1.14
2023-01-30T02:35:57.808Z,1.16
2023-01-30T02:36:57.654Z,1.12
2023-01-30T02:37:57.674Z,1.13
2023-01-30T02:39:00.479Z,1.18
2023-01-30T02:39:57.741Z,1.3
2023-01-30T02:40:57.655Z,1.21
2023-01-30T02:41:57.655Z,1.24
2023-01-30T02:42:57.782Z,1.3
2023-01-30T02:43:57.641Z,1.28
2023-01-30T02:44:57.658Z,1.34
2023-01-30T02:45:57.733Z,1.39
2023-01-30T02:46:57.660Z,1.3
2023-01-30T02:47:57.746Z,1.31
2023-01-30T02:48:57.675Z,1.3
2023-01-30T02:50:00.420Z,1.28
2023-01-30T02:50:57.673Z,1.32
2023-01-30T02:51:57.681Z,1.4
2023-01-30T02:52:57.692Z,1.43
2023-01-30T02:53:57.825Z,1.43
2023-01-30T02:54:57.711Z,1.4
2023-01-30T02:55:57.718Z,1.45
2023-01-30T02:56:57.710Z,1.36
2023-01-30T02:57:57.710Z,1.43
2023-01-30T02:58:57.682Z,1.5
2023-01-30T02:59:57.726Z,1.52
2023-01-30T03:01:00.609Z,1.42
2023-01-30T03:01:57.680Z,1.45
2023-01-30T03:02:57.755Z,1.5
2023-01-30T03:03:57.697Z,1.57
2023-01-30T03:04:57.697Z,1.48
2023-01-30T03:05:57.676Z,1.6
2023-01-30T03:06:57.718Z,1.66
2023-01-30T03:07:57.740Z,1.66
2023-01-30T03:08:57.725Z,1.64
2023-01-30T03:09:57.984Z,1.6
2023-01-30T03:10:58.023Z,1.58
2023-01-30T03:12:01.131Z,1.64
2023-01-30T03:13:01.092Z,1.57
2023-01-30T03:13:57.720Z,1.64
2023-01-30T03:14:57.702Z,1.64
2023-01-30T03:15:57.884Z,1.61
2023-01-30T03:16:57.756Z,1.67
2023-01-30T03:17:57.763Z,1.63
2023-01-30T03:18:57.714Z,1.68
2023-01-30T03:19:57.701Z,1.68
2023-01-30T03:20:57.718Z,1.64
2023-01-30T03:21:57.729Z,1.53
2023-01-30T03:23:00.819Z,1.6
2023-01-30T03:23:57.713Z,1.67
2023-01-30T03:24:57.715Z,1.6
2023-01-30T03:25:57.724Z,1.56
2023-01-30T03:26:58.773Z,1.71
2023-01-30T03:27:57.887Z,1.63
2023-01-30T03:28:57.788Z,1.63
2023-01-30T03:29:57.736Z,1.6
2023-01-30T03:30:58.073Z,1.61
2023-01-30T03:31:57.924Z,1.68
2023-01-30T03:32:57.756Z,1.7
2023-01-30T03:34:00.530Z,1.61
2023-01-30T03:34:57.754Z,1.64
2023-01-30T03:35:57.777Z,1.64
2023-01-30T03:36:57.816Z,1.74
2023-01-30T03:37:57.731Z,1.67
2023-01-30T03:38:57.747Z,1.6
2023-01-30T03:39:57.768Z,1.67
2023-01-30T03:40:57.760Z,1.63
2023-01-30T03:41:57.753Z,1.68
2023-01-30T03:42:57.777Z,1.67
2023-01-30T03:43:57.762Z,1.53
2023-01-30T03:45:00.935Z,1.75
2023-01-30T03:45:57.999Z,1.71
2023-01-30T03:46:57.760Z,1.66
2023-01-30T03:47:57.748Z,1.75
2023-01-30T03:48:57.788Z,1.75
2023-01-30T03:49:57.798Z,1.71
2023-01-30T03:50:57.777Z,1.75
2023-01-30T03:51:57.772Z,1.79
2023-01-30T03:52:57.780Z,1.79
2023-01-30T03:53:57.798Z,1.81
2023-01-30T03:54:57.856Z,1.76
2023-01-30T03:56:00.648Z,1.84
2023-01-30T03:56:57.765Z,1.82
2023-01-30T03:57:57.765Z,1.82
2023-01-30T03:58:57.784Z,1.76
2023-01-30T03:59:57.834Z,1.85
2023-01-30T04:01:01.630Z,1.84
2023-01-30T04:01:57.775Z,1.92
2023-01-30T04:02:57.771Z,1.86
2023-01-30T04:03:57.805Z,1.92
2023-01-30T04:04:57.802Z,1.89
2023-01-30T04:05:57.809Z,1.86
2023-01-30T04:07:00.545Z,1.85
2023-01-30T04:07:57.846Z,1.82
2023-01-30T04:08:57.838Z,1.82
2023-01-30T04:09:57.871Z,1.82
2023-01-30T04:10:57.812Z,1.97
2023-01-30T04:12:00.654Z,1.81
2023-01-30T04:12:57.792Z,1.82
2023-01-30T04:13:57.797Z,1.95
2023-01-30T04:14:57.798Z,1.95
2023-01-30T04:15:58.021Z,1.86
2023-01-30T04:16:58.090Z,1.93
2023-01-30T04:17:57.808Z,2.07
2023-01-30T04:18:57.794Z,1.97
2023-01-30T04:19:57.799Z,1.95
2023-01-30T04:20:57.790Z,2.05
2023-01-30T04:21:57.841Z,2.05
2023-01-30T04:23:00.859Z,2.08
2023-01-30T04:23:57.817Z,2.01
2023-01-30T04:24:57.823Z,2.04
2023-01-30T04:25:57.822Z,1.95
2023-01-30T04:26:57.817Z,2.03
2023-01-30T04:27:57.818Z,2.08
2023-01-30T04:28:57.849Z,2.01
2023-01-30T04:29:57.826Z,2.1
2023-01-30T04:30:58.082Z,1.97
2023-01-30T04:31:57.881Z,2.07
2023-01-30T04:32:57.930Z,1.97
2023-01-30T04:33:57.828Z,2.14
2023-01-30T04:34:57.844Z,2.08
2023-01-30T04:35:57.885Z,2.07
2023-01-30T04:36:57.918Z,2.14
2023-01-30T04:37:57.835Z,2.14
2023-01-30T04:38:57.887Z,2.08
2023-01-30T04:39:57.850Z,1.95
2023-01-30T04:40:57.835Z,2.04
2023-01-30T04:41:57.831Z,2.1
2023-01-30T04:42:57.850Z,2.12
2023-01-30T04:43:57.896Z,2.07
2023-01-30T04:44:57.851Z,2.08
2023-01-30T04:45:57.869Z,2.05
2023-01-30T04:46:57.865Z,2.08
2023-01-30T04:47:58.123Z,2.05
2023-01-30T04:48:57.989Z,2.01
2023-01-30T04:50:00.647Z,2.08
2023-01-30T04:50:57.863Z,2.08
2023-01-30T04:51:57.870Z,2.1
2023-01-30T04:52:57.861Z,2.14
2023-01-30T04:53:57.967Z,2.12
2023-01-30T04:55:00.913Z,2.22
2023-01-30T04:55:57.861Z,2.1
2023-01-30T04:56:57.904Z,2.1
2023-01-30T04:57:57.897Z,2.16
2023-01-30T04:58:57.895Z,2.16
2023-01-30T04:59:57.868Z,2.18
2023-01-30T05:01:00.963Z,2.16
2023-01-30T05:01:58.034Z,2.14
2023-01-30T05:02:57.901Z,2.23
2023-01-30T05:03:57.891Z,2.16
2023-01-30T05:04:58.129Z,2.21
2023-01-30T05:06:01.943Z,2.18
2023-01-30T05:06:57.868Z,2.1
2023-01-30T05:07:57.894Z,2.05
2023-01-30T05:08:57.908Z,2.05
2023-01-30T05:09:57.870Z,2.08
2023-01-30T05:10:57.899Z,2.08
2023-01-30T05:11:57.884Z,2.07
2023-01-30T05:12:57.905Z,2.07
2023-01-30T05:13:57.898Z,2.1
2023-01-30T05:14:57.937Z,2.1
2023-01-30T05:15:57.902Z,2.08
2023-01-30T05:17:01.148Z,2.15
2023-01-30T05:17:57.900Z,2.21
2023-01-30T05:18:57.939Z,2.15
2023-01-30T05:19:58.069Z,2.07
2023-01-30T05:20:58.158Z,2.18
2023-01-30T05:21:57.912Z,2.03
2023-01-30T05:22:57.952Z,2.1
2023-01-30T05:23:57.936Z,2.1
2023-01-30T05:24:57.928Z,2.14
2023-01-30T05:25:57.937Z,2.1
2023-01-30T05:26:57.937Z,2.1
2023-01-30T05:28:00.942Z,2.16
2023-01-30T05:28:57.951Z,2.28
2023-01-30T05:29:57.921Z,2.25
2023-01-30T05:31:01.019Z,2.12
2023-01-30T05:31:57.982Z,2.08
2023-01-30T05:32:57.931Z,2.12
2023-01-30T05:33:58.032Z,2.19
2023-01-30T05:34:57.937Z,2.1
2023-01-30T05:35:57.982Z,2.14
2023-01-30T05:36:58.012Z,2.03
2023-01-30T05:37:59.426Z,2.05
2023-01-30T05:39:00.877Z,2.16
2023-01-30T05:39:57.935Z,2.05
2023-01-30T05:40:58.056Z,2.18
2023-01-30T05:41:57.922Z,2.15
2023-01-30T05:42:57.965Z,2.15
2023-01-30T05:43:57.980Z,2.14
2023-01-30T05:44:57.825Z,2.1
2023-01-30T05:45:57.948Z,2.19
2023-01-30T05:46:58.199Z,2.04
2023-01-30T05:48:04.014Z,2.08
2023-01-30T05:48:57.996Z,2.08
2023-01-30T05:50:00.802Z,2.05
2023-01-30T05:50:57.988Z,2.16
2023-01-30T05:51:57.940Z,2.1
2023-01-30T05:52:58.036Z,2.1
2023-01-30T05:53:57.970Z,2.07
2023-01-30T05:54:58.041Z,2.04
2023-01-30T05:55:57.961Z,2.05
2023-01-30T05:56:57.975Z,2.08
2023-01-30T05:57:57.970Z,2.07
2023-01-30T05:58:58.005Z,2.1
2023-01-30T05:59:57.992Z,2.08
2023-01-30T06:01:00.792Z,2.1
2023-01-30T06:01:58.207Z,2.04
2023-01-30T06:02:58.172Z,2.16
2023-01-30T06:03:58.167Z,2.05
2023-01-30T06:04:57.976Z,2.12
2023-01-30T06:05:57.949Z,2.07
2023-01-30T06:06:58.039Z,2.08
2023-01-30T06:07:58.043Z,2.07
2023-01-30T06:08:58.195Z,2.15
2023-01-30T06:09:58.096Z,2.07
2023-01-30T06:10:57.991Z,2.15
2023-01-30T06:12:01.025Z,2.15
2023-01-30T06:12:57.963Z,2.1
2023-01-30T06:13:58.039Z,2.1
2023-01-30T06:14:57.979Z,2.08
2023-01-30T06:15:58.302Z,2.15
2023-01-30T06:16:58.232Z,2.1
2023-01-30T06:17:58.086Z,2.23
2023-01-30T06:18:58.048Z,2.12
2023-01-30T06:19:57.982Z,2.16
2023-01-30T06:20:57.996Z,2.19
2023-01-30T06:21:58.027Z,2.34
2023-01-30T06:23:00.792Z,2.22
2023-01-30T06:23:58.072Z,2.21
2023-01-30T06:24:58.101Z,2.25
2023-01-30T06:25:58.083Z,2.28
2023-01-30T06:26:58.092Z,2.34
2023-01-30T06:28:00.844Z,2.3
2023-01-30T06:28:58.046Z,2.32
2023-01-30T06:29:58.007Z,2.33
2023-01-30T06:30:58.518Z,2.32
2023-01-30T06:31:58.012Z,2.34
2023-01-30T06:32:58.029Z,2.36
2023-01-30T06:34:01.208Z,2.32
2023-01-30T06:34:58.067Z,2.36
2023-01-30T06:35:58.129Z,2.4
2023-01-30T06:36:58.069Z,2.37
2023-01-30T06:37:58.073Z,2.41
2023-01-30T06:38:59.340Z,2.39
2023-01-30T06:39:58.114Z,2.52
2023-01-30T06:40:58.182Z,2.43
2023-01-30T06:41:58.076Z,2.51
2023-01-30T06:42:58.080Z,2.46
2023-01-30T06:43:58.146Z,2.46
2023-01-30T06:44:58.037Z,2.46
2023-01-30T06:45:58.174Z,2.55
2023-01-30T06:46:58.126Z,2.51
2023-01-30T06:47:58.240Z,2.54
2023-01-30T06:48:58.201Z,2.51
2023-01-30T06:50:01.181Z,2.4
2023-01-30T06:50:58.069Z,2.36
2023-01-30T06:51:58.142Z,2.5
2023-01-30T06:52:59.070Z,2.46
2023-01-30T06:53:58.113Z,2.44
2023-01-30T06:54:58.080Z,2.44
2023-01-30T06:55:58.105Z,2.46
2023-01-30T06:56:58.136Z,2.44
2023-01-30T06:57:58.078Z,2.43
2023-01-30T06:58:58.108Z,2.47
2023-01-30T06:59:58.076Z,2.39
2023-01-30T07:00:58.071Z,2.5
2023-01-30T07:01:58.183Z,2.46
2023-01-30T07:02:58.071Z,2.43
2023-01-30T07:03:58.173Z,2.34
2023-01-30T07:04:58.083Z,2.39
2023-01-30T07:05:58.100Z,2.4
2023-01-30T07:06:58.093Z,2.46
2023-01-30T07:07:58.095Z,2.32
2023-01-30T07:08:58.107Z,2.34
2023-01-30T07:10:11.898Z,2.44
2023-01-30T07:10:58.107Z,2.51
2023-01-30T07:11:58.137Z,2.5
2023-01-30T07:12:58.229Z,2.34
2023-01-30T07:13:58.129Z,2.46
2023-01-30T07:15:07.082Z,2.39
2023-01-30T07:15:58.098Z,2.44
2023-01-30T07:17:01.165Z,2.43
2023-01-30T07:17:58.115Z,2.51
2023-01-30T07:18:58.122Z,2.54
2023-01-30T07:19:58.116Z,2.43
2023-01-30T07:20:58.130Z,2.55
2023-01-30T07:22:02.459Z,2.39
2023-01-30T07:22:58.185Z,2.46
2023-01-30T07:23:58.149Z,2.47
2023-01-30T07:24:58.139Z,2.33
2023-01-30T07:25:58.129Z,2.37
2023-01-30T07:26:58.124Z,2.36
2023-01-30T07:27:58.116Z,2.33
2023-01-30T07:28:58.278Z,2.3
2023-01-30T07:29:58.099Z,2.36
2023-01-30T07:30:58.355Z,2.33
2023-01-30T07:31:58.433Z,2.32
2023-01-30T07:33:01.135Z,2.36
2023-01-30T07:33:58.144Z,2.36
2023-01-30T07:34:58.114Z,2.39
2023-01-30T07:35:58.145Z,2.34
2023-01-30T07:36:58.139Z,2.36
2023-01-30T07:37:58.127Z,2.34
2023-01-30T07:38:58.140Z,2.44
2023-01-30T07:39:58.132Z,2.39
2023-01-30T07:40:58.112Z,2.43
2023-01-30T07:42:00.506Z,2.4
2023-01-30T07:42:58.153Z,2.52
2023-01-30T07:44:01.568Z,2.51
2023-01-30T07:44:58.139Z,2.41
2023-01-30T07:45:58.130Z,2.5
2023-01-30T07:46:58.372Z,2.59
2023-01-30T07:47:58.133Z,2.54
2023-01-30T07:48:59.894Z,2.64
2023-01-30T07:49:58.140Z,2.62
2023-01-30T07:50:58.149Z,2.65
2023-01-30T07:51:58.139Z,2.76
2023-01-30T07:52:58.155Z,2.73
2023-01-30T07:53:58.151Z,2.83
2023-01-30T07:55:03.662Z,2.95
2023-01-30T07:55:58.129Z,2.98
2023-01-30T07:56:58.162Z,2.87
2023-01-30T07:57:58.201Z,2.97
2023-01-30T07:58:58.172Z,2.95
2023-01-30T07:59:58.264Z,2.91
2023-01-30T08:00:58.277Z,2.91
2023-01-30T08:01:58.188Z,2.95
2023-01-30T08:02:58.229Z,2.91
2023-01-30T08:03:58.165Z,2.97
2023-01-30T08:04:58.400Z,3.03
2023-01-30T08:06:01.055Z,2.85
2023-01-30T08:06:58.223Z,2.95
2023-01-30T08:07:58.195Z,2.95
2023-01-30T08:08:58.187Z,2.93
2023-01-30T08:09:58.205Z,2.87
2023-01-30T08:10:58.191Z,2.94
2023-01-30T08:11:58.202Z,2.82
2023-01-30T08:12:58.310Z,2.9
2023-01-30T08:13:58.201Z,2.91
2023-01-30T08:14:58.197Z,2.94
2023-01-30T08:15:58.291Z,2.82
2023-01-30T08:17:01.108Z,2.79
2023-01-30T08:17:58.426Z,2.85
2023-01-30T08:18:58.242Z,2.85
2023-01-30T08:19:58.252Z,2.82
2023-01-30T08:20:58.184Z,2.87
2023-01-30T08:21:58.225Z,2.7
2023-01-30T08:22:58.217Z,2.82
2023-01-30T08:24:00.178Z,2.82
2023-01-30T08:24:58.213Z,2.85
2023-01-30T08:25:58.272Z,2.85
2023-01-30T08:26:58.228Z,2.88
2023-01-30T08:28:01.475Z,2.82
2023-01-30T08:28:59.280Z,2.75
2023-01-30T08:29:58.208Z,2.88
2023-01-30T08:30:58.688Z,2.88
2023-01-30T08:31:58.282Z,2.9
2023-01-30T08:32:58.189Z,2.85
2023-01-30T08:33:58.200Z,2.82
2023-01-30T08:34:58.243Z,2.88
2023-01-30T08:35:58.254Z,2.7
2023-01-30T08:36:58.248Z,2.87
2023-01-30T08:37:58.226Z,2.91
2023-01-30T08:38:58.448Z,2.94
2023-01-30T08:39:58.241Z,2.91
2023-01-30T08:40:58.243Z,2.85
2023-01-30T08:41:58.260Z,2.85
2023-01-30T08:42:58.234Z,2.83
2023-01-30T08:43:58.242Z,2.79
2023-01-30T08:44:58.304Z,2.85
2023-01-30T08:45:58.233Z,2.82
2023-01-30T08:46:58.408Z,2.9
2023-01-30T08:47:58.369Z,2.83
2023-01-30T08:48:58.226Z,2.91
2023-01-30T08:50:01.392Z,2.82
2023-01-30T08:50:58.255Z,2.82
2023-01-30T08:51:58.257Z,2.9
2023-01-30T08:52:58.223Z,2.69
2023-01-30T08:53:58.266Z,2.75
2023-01-30T08:54:58.536Z,2.62
2023-01-30T08:55:58.342Z,2.76
2023-01-30T08:56:58.264Z,2.88
2023-01-30T08:57:58.318Z,2.77
2023-01-30T08:58:58.266Z,2.8
2023-01-30T08:59:58.281Z,2.75
2023-01-30T09:01:01.476Z,2.77
2023-01-30T09:01:58.251Z,2.73
2023-01-30T09:02:58.294Z,2.77
2023-01-30T09:03:58.334Z,2.76
2023-01-30T09:04:58.385Z,2.72
2023-01-30T09:06:01.394Z,2.7
2023-01-30T09:06:58.287Z,2.72
2023-01-30T09:07:58.284Z,2.65
2023-01-30T09:08:58.292Z,2.72
2023-01-30T09:09:58.314Z,2.64
2023-01-30T09:10:58.302Z,2.54
2023-01-30T09:11:58.303Z,2.5
2023-01-30T09:12:58.287Z,2.57
2023-01-30T09:13:58.278Z,2.57
2023-01-30T09:14:58.315Z,2.59
2023-01-30T09:15:58.291Z,2.46
2023-01-30T09:17:01.479Z,2.46
2023-01-30T09:17:58.302Z,2.54
2023-01-30T09:18:58.333Z,2.44
2023-01-30T09:19:58.387Z,2.61
2023-01-30T09:20:58.525Z,2.5
2023-01-30T09:21:58.401Z,2.51
2023-01-30T09:22:58.300Z,2.47
2023-01-30T09:23:58.309Z,2.51
2023-01-30T09:24:58.324Z,2.54
2023-01-30T09:25:58.344Z,2.57
2023-01-30T09:26:58.309Z,2.52
2023-01-30T09:27:58.378Z,2.51
2023-01-30T09:28:58.366Z,2.65
2023-01-30T09:29:58.345Z,2.68
2023-01-30T09:30:58.772Z,2.62
2023-01-30T09:31:58.361Z,2.72
2023-01-30T09:32:58.309Z,2.68
2023-01-30T09:33:58.411Z,2.65
2023-01-30T09:34:58.364Z,2.69
2023-01-30T09:35:58.446Z,2.7
2023-01-30T09:36:58.391Z,2.69
2023-01-30T09:37:58.363Z,2.8
2023-01-30T09:38:58.318Z,2.79
2023-01-30T09:39:58.391Z,2.82
2023-01-30T09:40:58.305Z,2.72
2023-01-30T09:41:58.350Z,2.85
2023-01-30T09:42:58.364Z,2.93
2023-01-30T09:44:01.367Z,2.8
2023-01-30T09:44:58.353Z,2.77
2023-01-30T09:45:58.473Z,2.87
2023-01-30T09:46:58.342Z,2.85
2023-01-30T09:48:04.113Z,2.9
2023-01-30T09:49:01.385Z,2.93
2023-01-30T09:49:58.686Z,2.94
2023-01-30T09:50:58.777Z,3
2023-01-30T09:51:58.417Z,2.94
2023-01-30T09:52:58.356Z,3.01
2023-01-30T09:54:00.199Z,2.98
2023-01-30T09:55:01.181Z,3.03
2023-01-30T09:55:58.318Z,3.08
2023-01-30T09:56:58.346Z,3.06
2023-01-30T09:57:58.391Z,3.09
2023-01-30T09:58:58.355Z,3.09
2023-01-30T10:00:01.412Z,3.12
2023-01-30T10:00:58.561Z,3.13
2023-01-30T10:01:58.352Z,3.16
2023-01-30T10:02:58.399Z,3.12
2023-01-30T10:03:58.370Z,3.09
2023-01-30T10:05:06.380Z,3.22
2023-01-30T10:06:01.388Z,3.26
2023-01-30T10:06:58.695Z,3.36
2023-01-30T10:07:58.730Z,3.29
2023-01-30T10:08:58.447Z,3.21
2023-01-30T10:09:58.367Z,3.27
2023-01-30T10:11:13.812Z,3.36
2023-01-30T10:11:58.450Z,3.22
2023-01-30T10:12:58.381Z,3.33
2023-01-30T10:13:58.362Z,3.29
2023-01-30T10:14:58.436Z,3.36
2023-01-30T10:15:58.573Z,3.3
2023-01-30T10:16:58.482Z,3.41
2023-01-30T10:17:58.479Z,3.5
2023-01-30T10:18:58.415Z,3.55
2023-01-30T10:19:58.466Z,3.52
2023-01-30T10:21:02.405Z,3.36
2023-01-30T10:22:01.453Z,3.53
2023-01-30T10:22:58.364Z,3.45
2023-01-30T10:23:58.536Z,3.48
2023-01-30T10:24:58.433Z,3.58
2023-01-30T10:25:58.405Z,3.43
2023-01-30T10:26:58.642Z,3.49
2023-01-30T10:28:07.259Z,3.48
2023-01-30T10:29:11.139Z,3.49
2023-01-30T10:29:58.388Z,3.58
2023-01-30T10:30:58.781Z,3.61
2023-01-30T10:31:58.645Z,3.5
2023-01-30T10:33:01.442Z,3.64
2023-01-30T10:33:58.469Z,3.56
2023-01-30T10:34:58.470Z,3.55
2023-01-30T10:35:58.393Z,3.66
2023-01-30T10:36:58.426Z,3.66
2023-01-30T10:37:58.410Z,3.59
2023-01-30T10:38:58.399Z,3.55
2023-01-30T10:40:00.353Z,3.59
2023-01-30T10:40:58.455Z,3.56
2023-01-30T10:41:58.451Z,3.63
2023-01-30T10:42:58.427Z,3.64
2023-01-30T10:44:01.306Z,3.68
2023-01-30T10:44:58.476Z,3.61
2023-01-30T10:45:58.397Z,3.77
2023-01-30T10:46:58.661Z,3.64
2023-01-30T10:47:58.529Z,3.59
2023-01-30T10:48:59.561Z,3.64
2023-01-30T10:49:58.499Z,3.68
2023-01-30T10:50:58.443Z,3.63
2023-01-30T10:51:58.417Z,3.66
2023-01-30T10:52:58.712Z,3.68
2023-01-30T10:53:58.473Z,3.66
2023-01-30T10:55:01.603Z,3.61
2023-01-30T10:55:58.515Z,3.67
2023-01-30T10:56:58.446Z,3.7
2023-01-30T10:57:58.438Z,3.66
2023-01-30T10:58:58.475Z,3.7
2023-01-30T10:59:58.453Z,3.66
2023-01-30T11:00:58.432Z,3.58
2023-01-30T11:01:58.778Z,3.58
2023-01-30T11:02:58.637Z,3.68
2023-01-30T11:03:58.475Z,3.66
2023-01-30T11:04:58.454Z,3.74
2023-01-30T11:06:01.239Z,3.67
2023-01-30T11:06:58.474Z,3.78
2023-01-30T11:07:58.477Z,3.68
2023-01-30T11:08:58.692Z,3.73
2023-01-30T11:09:58.497Z,3.73
2023-01-30T11:10:58.495Z,3.81
2023-01-30T11:11:58.620Z,3.81
2023-01-30T11:12:58.504Z,3.76
2023-01-30T11:13:58.486Z,3.91
2023-01-30T11:14:58.569Z,3.82
2023-01-30T11:15:58.569Z,3.84
2023-01-30T11:17:01.362Z,3.74
2023-01-30T11:19:27.879Z,3.78
2023-01-30T11:20:27.839Z,3.7
2023-01-30T11:21:45.363Z,3.74
2023-01-30T11:22:27.851Z,3.84
2023-01-30T11:23:30.853Z,3.84
2023-01-30T11:24:30.729Z,3.82
2023-01-30T11:25:27.848Z,3.78
2023-01-30T11:26:46.614Z,3.74
2023-01-30T11:27:28.024Z,3.84
2023-01-30T11:28:27.869Z,3.85
2023-01-30T11:29:27.849Z,3.78
2023-01-30T11:30:27.869Z,3.82
2023-01-30T11:31:47.898Z,3.84
2023-01-30T11:32:28.150Z,3.84
2023-01-30T11:33:27.870Z,3.84
2023-01-30T11:34:27.893Z,3.84
2023-01-30T11:35:30.874Z,3.81
2023-01-30T11:36:27.845Z,3.78
2023-01-30T11:37:27.879Z,3.92
2023-01-30T11:38:27.893Z,3.77
2023-01-30T11:39:27.941Z,3.92
2023-01-30T11:40:27.889Z,3.91
2023-01-30T11:41:27.873Z,3.81
2023-01-30T11:42:27.901Z,3.88
2023-01-30T11:43:27.992Z,3.85
2023-01-30T11:44:27.905Z,3.94
2023-01-30T11:45:27.915Z,3.88
2023-01-30T11:46:30.759Z,3.85
2023-01-30T11:47:31.647Z,3.7
2023-01-30T11:49:47.744Z,3.84
2023-01-30T11:50:39.732Z,3.77
2023-01-30T11:51:29.262Z,3.81
2023-01-30T11:52:29.254Z,3.78
2023-01-30T11:53:29.247Z,3.94
2023-01-30T11:54:29.255Z,3.94
2023-01-30T11:55:29.237Z,3.82
2023-01-30T11:56:29.261Z,3.88
2023-01-30T11:57:32.307Z,3.91
2023-01-30T11:58:29.267Z,3.82
2023-01-30T11:59:29.411Z,3.89
2023-01-30T12:00:29.248Z,3.81
2023-01-30T12:01:29.302Z,3.85
2023-01-30T12:02:29.514Z,3.82
2023-01-30T12:03:29.529Z,3.92
2023-01-30T12:04:29.287Z,3.95
2023-01-30T12:05:29.397Z,3.82
2023-01-30T12:06:29.247Z,3.85
2023-01-30T12:07:29.288Z,3.88
2023-01-30T12:08:45.391Z,3.91
2023-01-30T12:09:29.259Z,3.91
2023-01-30T12:10:29.282Z,3.86
2023-01-30T12:11:29.301Z,3.91
2023-01-30T12:12:29.279Z,3.88
2023-01-30T12:13:29.260Z,3.78
2023-01-30T12:14:29.239Z,3.82
2023-01-30T12:15:29.481Z,3.85
2023-01-30T12:16:29.507Z,3.84
2023-01-30T12:17:29.315Z,3.84
2023-01-30T12:18:29.289Z,3.84
2023-01-30T12:19:32.277Z,3.88
2023-01-30T12:20:29.275Z,3.82
2023-01-30T12:21:29.273Z,3.81
2023-01-30T12:22:29.294Z,3.88
2023-01-30T12:23:29.264Z,3.84
2023-01-30T12:24:29.281Z,3.86
2023-01-30T12:25:29.283Z,4
2023-01-30T12:26:29.494Z,3.86
2023-01-30T12:27:29.316Z,3.92
2023-01-30T12:28:29.340Z,3.92
2023-01-30T12:29:32.090Z,3.91
2023-01-30T12:30:32.393Z,3.86
2023-01-30T12:31:29.358Z,3.82
2023-01-30T12:32:29.350Z,3.95
2023-01-30T12:33:29.303Z,3.82
2023-01-30T12:34:32.198Z,3.85
2023-01-30T12:35:29.319Z,3.88
2023-01-30T12:36:29.328Z,3.84
2023-01-30T12:37:29.327Z,3.82
2023-01-30T12:38:29.320Z,3.85
2023-01-30T12:39:29.310Z,3.92
2023-01-30T12:40:29.286Z,3.85
2023-01-30T12:41:32.409Z,3.84
2023-01-30T12:42:30.549Z,3.95
2023-01-30T12:43:29.301Z,3.84
2023-01-30T12:44:29.349Z,3.89
2023-01-30T12:45:29.326Z,3.91
2023-01-30T12:46:29.574Z,3.86
2023-01-30T12:47:30.520Z,3.95
2023-01-30T12:48:29.317Z,3.99
2023-01-30T12:49:29.324Z,3.95
2023-01-30T12:50:29.342Z,4.14
2023-01-30T12:51:29.312Z,4.04
2023-01-30T12:52:29.355Z,4.03
2023-01-30T12:53:29.340Z,3.96
2023-01-30T12:54:29.359Z,4.03
2023-01-30T12:55:29.384Z,4.07
2023-01-30T12:56:29.360Z,4.04
2023-01-30T12:57:29.739Z,4.06
2023-01-30T12:58:29.371Z,4.1
2023-01-30T12:59:29.327Z,4.03
2023-01-30T13:00:29.369Z,4.12
2023-01-30T13:01:29.715Z,4.04
2023-01-30T13:02:34.544Z,4.02
2023-01-30T13:03:29.417Z,4.02
2023-01-30T13:04:29.333Z,4.1
2023-01-30T13:05:29.361Z,4.21
2023-01-30T13:06:29.373Z,4.28
2023-01-30T13:07:29.363Z,4.12
2023-01-30T13:08:29.340Z,4.24
2023-01-30T13:09:29.452Z,4.31
2023-01-30T13:10:29.383Z,4.31
2023-01-30T13:11:29.403Z,4.32
2023-01-30T13:12:29.379Z,4.38
2023-01-30T13:13:29.390Z,4.32
2023-01-30T13:14:29.398Z,4.46
2023-01-30T13:15:29.527Z,4.48
2023-01-30T13:16:29.594Z,4.5
2023-01-30T13:17:29.386Z,4.52
2023-01-30T13:18:29.413Z,4.48
2023-01-30T13:19:42.960Z,4.49
2023-01-30T13:20:29.370Z,4.49
2023-01-30T13:21:29.373Z,4.53